sensor_id;sensor_type;location;lat;lon;timestamp;temperature;humidity
28071;DHT22;15383;48.408;9.968;2024-03-02T00:00:51;9.60;99.90
28071;DHT22;15383;48.408;9.968;2024-03-02T00:03:18;9.60;99.90
28071;DHT22;15383;48.408;9.968;2024-03-02T00:05:44;9.60;99.90
28071;DHT22;15383;48.408;9.968;2024-03-02T00:08:21;9.60;99.90
28071;DHT22;15383;48.408;9.968;2024-03-02T00:10:47;9.60;99.90
28071;DHT22;15383;48.408;9.968;2024-03-02T00:13:13;9.60;99.90
28071;DHT22;15383;48.408;9.968;2024-03-02T00:15:46;9.60;99.90
28071;DHT22;15383;48.408;9.968;2024-03-02T00:18:14;9.60;99.90
28071;DHT22;15383;48.408;9.968;2024-03-02T00:20:41;9.60;99.90
28071;DHT22;15383;48.408;9.968;2024-03-02T00:23:09;9.60;99.90
28071;DHT22;15383;48.408;9.968;2024-03-02T00:25:44;9.60;99.90
28071;DHT22;15383;48.408;9.968;2024-03-02T00:28:21;9.60;99.90
28071;DHT22;15383;48.408;9.968;2024-03-02T00:33:35;9.60;99.90
28071;DHT22;15383;48.408;9.968;2024-03-02T00:36:05;9.60;99.90
28071;DHT22;15383;48.408;9.968;2024-03-02T00:38:32;9.60;99.90
28071;DHT22;15383;48.408;9.968;2024-03-02T00:41:04;9.60;99.90
28071;DHT22;15383;48.408;9.968;2024-03-02T00:46:19;9.60;99.90
28071;DHT22;15383;48.408;9.968;2024-03-02T00:48:54;9.60;99.90
28071;DHT22;15383;48.408;9.968;2024-03-02T00:51:22;9.60;99.90
28071;DHT22;15383;48.408;9.968;2024-03-02T00:53:48;9.60;99.90
28071;DHT22;15383;48.408;9.968;2024-03-02T00:56:14;9.60;99.90
28071;DHT22;15383;48.408;9.968;2024-03-02T00:58:40;9.60;99.90
28071;DHT22;15383;48.408;9.968;2024-03-02T01:01:06;9.60;99.90
28071;DHT22;15383;48.408;9.968;2024-03-02T01:03:33;9.60;99.90
28071;DHT22;15383;48.408;9.968;2024-03-02T01:05:59;9.60;99.90
28071;DHT22;15383;48.408;9.968;2024-03-02T01:08:25;9.60;99.90
28071;DHT22;15383;48.408;9.968;2024-03-02T01:10:51;9.60;99.90
28071;DHT22;15383;48.408;9.968;2024-03-02T01:13:17;9.60;99.90
28071;DHT22;15383;48.408;9.968;2024-03-02T01:15:42;9.60;99.90
28071;DHT22;15383;48.408;9.968;2024-03-02T01:18:08;9.60;99.90
28071;DHT22;15383;48.408;9.968;2024-03-02T01:20:34;9.60;99.90
28071;DHT22;15383;48.408;9.968;2024-03-02T01:22:59;9.60;99.90
28071;DHT22;15383;48.408;9.968;2024-03-02T01:25:25;9.60;99.90
28071;DHT22;15383;48.408;9.968;2024-03-02T01:27:50;9.60;99.90
28071;DHT22;15383;48.408;9.968;2024-03-02T01:30:16;9.60;99.90
28071;DHT22;15383;48.408;9.968;2024-03-02T01:32:42;9.60;99.90
28071;DHT22;15383;48.408;9.968;2024-03-02T01:35:07;9.60;99.90
28071;DHT22;15383;48.408;9.968;2024-03-02T01:37:33;9.60;99.90
28071;DHT22;15383;48.408;9.968;2024-03-02T01:39:59;9.60;99.90
28071;DHT22;15383;48.408;9.968;2024-03-02T01:42:24;9.60;99.90
28071;DHT22;15383;48.408;9.968;2024-03-02T01:44:50;9.60;99.90
28071;DHT22;15383;48.408;9.968;2024-03-02T01:47:16;9.60;99.90
28071;DHT22;15383;48.408;9.968;2024-03-02T01:49:42;9.60;99.90
28071;DHT22;15383;48.408;9.968;2024-03-02T01:52:07;9.60;99.90
28071;DHT22;15383;48.408;9.968;2024-03-02T01:54:33;9.60;99.90
28071;DHT22;15383;48.408;9.968;2024-03-02T01:56:59;9.60;99.90
28071;DHT22;15383;48.408;9.968;2024-03-02T01:59:25;9.60;99.90
28071;DHT22;15383;48.408;9.968;2024-03-02T02:01:51;9.60;99.90
28071;DHT22;15383;48.408;9.968;2024-03-02T02:04:17;9.60;99.90
28071;DHT22;15383;48.408;9.968;2024-03-02T02:06:44;9.60;99.90
28071;DHT22;15383;48.408;9.968;2024-03-02T02:09:10;9.60;99.90
28071;DHT22;15383;48.408;9.968;2024-03-02T02:11:35;9.60;99.90
28071;DHT22;15383;48.408;9.968;2024-03-02T02:14:01;9.60;99.90
28071;DHT22;15383;48.408;9.968;2024-03-02T02:16:27;9.60;99.90
28071;DHT22;15383;48.408;9.968;2024-03-02T02:18:52;9.60;99.90
28071;DHT22;15383;48.408;9.968;2024-03-02T02:21:22;9.60;99.90
28071;DHT22;15383;48.408;9.968;2024-03-02T02:23:47;9.60;99.90
28071;DHT22;15383;48.408;9.968;2024-03-02T02:26:13;9.60;99.90
28071;DHT22;15383;48.408;9.968;2024-03-02T02:28:39;9.60;99.90
28071;DHT22;15383;48.408;9.968;2024-03-02T02:31:14;9.60;99.90
28071;DHT22;15383;48.408;9.968;2024-03-02T02:33:40;9.60;99.90
28071;DHT22;15383;48.408;9.968;2024-03-02T02:36:06;9.60;99.90
28071;DHT22;15383;48.408;9.968;2024-03-02T02:38:37;9.60;99.90
28071;DHT22;15383;48.408;9.968;2024-03-02T02:41:04;9.60;99.90
28071;DHT22;15383;48.408;9.968;2024-03-02T02:43:29;9.60;99.90
28071;DHT22;15383;48.408;9.968;2024-03-02T02:45:55;9.60;99.90
28071;DHT22;15383;48.408;9.968;2024-03-02T02:48:20;9.60;99.90
28071;DHT22;15383;48.408;9.968;2024-03-02T02:50:46;9.60;99.90
28071;DHT22;15383;48.408;9.968;2024-03-02T02:53:11;9.60;99.90
28071;DHT22;15383;48.408;9.968;2024-03-02T02:55:39;9.60;99.90
28071;DHT22;15383;48.408;9.968;2024-03-02T02:58:06;9.50;99.90
28071;DHT22;15383;48.408;9.968;2024-03-02T03:00:31;9.60;99.90
28071;DHT22;15383;48.408;9.968;2024-03-02T03:02:57;9.60;99.90
28071;DHT22;15383;48.408;9.968;2024-03-02T03:05:23;9.50;99.90
28071;DHT22;15383;48.408;9.968;2024-03-02T03:07:48;9.50;99.90
28071;DHT22;15383;48.408;9.968;2024-03-02T03:10:15;9.60;99.90
28071;DHT22;15383;48.408;9.968;2024-03-02T03:12:41;9.50;99.90
28071;DHT22;15383;48.408;9.968;2024-03-02T03:15:09;9.60;99.90
28071;DHT22;15383;48.408;9.968;2024-03-02T03:17:35;9.50;99.90
28071;DHT22;15383;48.408;9.968;2024-03-02T03:20:01;9.60;99.90
28071;DHT22;15383;48.408;9.968;2024-03-02T03:22:28;9.50;99.90
28071;DHT22;15383;48.408;9.968;2024-03-02T03:24:53;9.50;99.90
28071;DHT22;15383;48.408;9.968;2024-03-02T03:27:19;9.50;99.90
28071;DHT22;15383;48.408;9.968;2024-03-02T03:29:47;9.50;99.90
28071;DHT22;15383;48.408;9.968;2024-03-02T03:32:13;9.50;99.90
28071;DHT22;15383;48.408;9.968;2024-03-02T03:34:39;9.50;99.90
28071;DHT22;15383;48.408;9.968;2024-03-02T03:37:04;9.50;99.90
28071;DHT22;15383;48.408;9.968;2024-03-02T03:39:30;9.50;99.90
28071;DHT22;15383;48.408;9.968;2024-03-02T03:41:55;9.50;99.90
28071;DHT22;15383;48.408;9.968;2024-03-02T03:44:21;9.50;99.90
28071;DHT22;15383;48.408;9.968;2024-03-02T03:46:47;9.50;99.90
28071;DHT22;15383;48.408;9.968;2024-03-02T03:49:12;9.50;99.90
28071;DHT22;15383;48.408;9.968;2024-03-02T03:51:38;9.50;99.90
28071;DHT22;15383;48.408;9.968;2024-03-02T03:54:03;9.50;99.90
28071;DHT22;15383;48.408;9.968;2024-03-02T03:56:29;9.50;99.90
28071;DHT22;15383;48.408;9.968;2024-03-02T03:58:54;9.50;99.90
28071;DHT22;15383;48.408;9.968;2024-03-02T04:01:20;9.50;99.90
28071;DHT22;15383;48.408;9.968;2024-03-02T04:03:47;9.50;99.90
28071;DHT22;15383;48.408;9.968;2024-03-02T04:06:13;9.50;99.90
28071;DHT22;15383;48.408;9.968;2024-03-02T04:08:41;9.50;99.90
28071;DHT22;15383;48.408;9.968;2024-03-02T04:11:06;9.50;99.90
28071;DHT22;15383;48.408;9.968;2024-03-02T04:13:33;9.60;99.90
28071;DHT22;15383;48.408;9.968;2024-03-02T04:15:58;9.50;99.90
28071;DHT22;15383;48.408;9.968;2024-03-02T04:18:24;9.50;99.90
28071;DHT22;15383;48.408;9.968;2024-03-02T04:20:49;9.50;99.90
28071;DHT22;15383;48.408;9.968;2024-03-02T04:23:15;9.50;99.90
28071;DHT22;15383;48.408;9.968;2024-03-02T04:25:40;9.50;99.90
28071;DHT22;15383;48.408;9.968;2024-03-02T04:28:06;9.50;99.90
28071;DHT22;15383;48.408;9.968;2024-03-02T04:30:31;9.50;99.90
28071;DHT22;15383;48.408;9.968;2024-03-02T04:32:57;9.50;99.90
28071;DHT22;15383;48.408;9.968;2024-03-02T04:35:23;9.50;99.90
28071;DHT22;15383;48.408;9.968;2024-03-02T04:37:48;9.50;99.90
28071;DHT22;15383;48.408;9.968;2024-03-02T04:40:14;9.50;99.90
28071;DHT22;15383;48.408;9.968;2024-03-02T04:42:40;9.50;99.90
28071;DHT22;15383;48.408;9.968;2024-03-02T04:45:06;9.50;99.90
28071;DHT22;15383;48.408;9.968;2024-03-02T04:47:32;9.50;99.90
28071;DHT22;15383;48.408;9.968;2024-03-02T04:49:58;9.50;99.90
28071;DHT22;15383;48.408;9.968;2024-03-02T04:52:23;9.50;99.90
28071;DHT22;15383;48.408;9.968;2024-03-02T04:54:49;9.50;99.90
28071;DHT22;15383;48.408;9.968;2024-03-02T04:57:43;9.50;99.90
28071;DHT22;15383;48.408;9.968;2024-03-02T05:00:10;9.50;99.90
28071;DHT22;15383;48.408;9.968;2024-03-02T05:02:35;9.50;99.90
28071;DHT22;15383;48.408;9.968;2024-03-02T05:05:01;9.50;99.90
28071;DHT22;15383;48.408;9.968;2024-03-02T05:07:28;9.50;99.90
28071;DHT22;15383;48.408;9.968;2024-03-02T05:09:53;9.50;99.90
28071;DHT22;15383;48.408;9.968;2024-03-02T05:12:19;9.50;99.90
28071;DHT22;15383;48.408;9.968;2024-03-02T05:15:03;9.50;99.90
28071;DHT22;15383;48.408;9.968;2024-03-02T05:17:29;9.50;99.90
28071;DHT22;15383;48.408;9.968;2024-03-02T05:19:54;9.50;99.90
28071;DHT22;15383;48.408;9.968;2024-03-02T05:22:20;9.50;99.90
28071;DHT22;15383;48.408;9.968;2024-03-02T05:24:45;9.50;99.90
28071;DHT22;15383;48.408;9.968;2024-03-02T05:27:11;9.50;99.90
28071;DHT22;15383;48.408;9.968;2024-03-02T05:29:36;9.50;99.90
28071;DHT22;15383;48.408;9.968;2024-03-02T05:32:02;9.50;99.90
28071;DHT22;15383;48.408;9.968;2024-03-02T05:34:27;9.50;99.90
28071;DHT22;15383;48.408;9.968;2024-03-02T05:36:53;9.50;99.90
28071;DHT22;15383;48.408;9.968;2024-03-02T05:39:18;9.50;99.90
28071;DHT22;15383;48.408;9.968;2024-03-02T05:41:44;9.50;99.90
28071;DHT22;15383;48.408;9.968;2024-03-02T05:44:10;9.50;99.90
28071;DHT22;15383;48.408;9.968;2024-03-02T05:46:35;9.50;99.90
28071;DHT22;15383;48.408;9.968;2024-03-02T05:49:01;9.50;99.90
28071;DHT22;15383;48.408;9.968;2024-03-02T05:51:26;9.40;99.90
28071;DHT22;15383;48.408;9.968;2024-03-02T05:53:52;9.40;99.90
28071;DHT22;15383;48.408;9.968;2024-03-02T05:56:17;9.50;99.90
28071;DHT22;15383;48.408;9.968;2024-03-02T05:58:43;9.40;99.90
28071;DHT22;15383;48.408;9.968;2024-03-02T06:01:23;9.40;99.90
28071;DHT22;15383;48.408;9.968;2024-03-02T06:03:56;9.40;99.90
28071;DHT22;15383;48.408;9.968;2024-03-02T06:06:22;9.40;99.90
28071;DHT22;15383;48.408;9.968;2024-03-02T06:08:48;9.40;99.90
28071;DHT22;15383;48.408;9.968;2024-03-02T06:11:14;9.40;99.90
28071;DHT22;15383;48.408;9.968;2024-03-02T06:13:39;9.40;99.90
28071;DHT22;15383;48.408;9.968;2024-03-02T06:16:05;9.40;99.90
28071;DHT22;15383;48.408;9.968;2024-03-02T06:18:30;9.40;99.90
28071;DHT22;15383;48.408;9.968;2024-03-02T06:20:56;9.40;99.90
28071;DHT22;15383;48.408;9.968;2024-03-02T06:23:21;9.40;99.90
28071;DHT22;15383;48.408;9.968;2024-03-02T06:25:47;9.40;99.90
28071;DHT22;15383;48.408;9.968;2024-03-02T06:28:13;9.40;99.90
28071;DHT22;15383;48.408;9.968;2024-03-02T06:30:41;9.40;99.90
28071;DHT22;15383;48.408;9.968;2024-03-02T06:33:07;9.40;99.90
28071;DHT22;15383;48.408;9.968;2024-03-02T06:35:33;9.40;99.90
28071;DHT22;15383;48.408;9.968;2024-03-02T06:37:58;9.40;99.90
28071;DHT22;15383;48.408;9.968;2024-03-02T06:40:24;9.50;99.90
28071;DHT22;15383;48.408;9.968;2024-03-02T06:42:49;9.40;99.90
28071;DHT22;15383;48.408;9.968;2024-03-02T06:45:15;9.50;99.90
28071;DHT22;15383;48.408;9.968;2024-03-02T06:47:40;9.50;99.90
28071;DHT22;15383;48.408;9.968;2024-03-02T06:50:06;9.40;99.90
28071;DHT22;15383;48.408;9.968;2024-03-02T06:52:32;9.40;99.90
28071;DHT22;15383;48.408;9.968;2024-03-02T06:54:58;9.40;99.90
28071;DHT22;15383;48.408;9.968;2024-03-02T06:57:23;9.50;99.90
28071;DHT22;15383;48.408;9.968;2024-03-02T06:59:50;9.40;99.90
28071;DHT22;15383;48.408;9.968;2024-03-02T07:02:16;9.50;99.90
28071;DHT22;15383;48.408;9.968;2024-03-02T07:04:42;9.50;99.90
28071;DHT22;15383;48.408;9.968;2024-03-02T07:07:08;9.50;99.90
28071;DHT22;15383;48.408;9.968;2024-03-02T07:09:33;9.50;99.90
28071;DHT22;15383;48.408;9.968;2024-03-02T07:11:59;9.50;99.90
28071;DHT22;15383;48.408;9.968;2024-03-02T07:14:24;9.50;99.90
28071;DHT22;15383;48.408;9.968;2024-03-02T07:17:10;9.50;99.90
28071;DHT22;15383;48.408;9.968;2024-03-02T07:19:35;9.50;99.90
28071;DHT22;15383;48.408;9.968;2024-03-02T07:22:01;9.50;99.90
28071;DHT22;15383;48.408;9.968;2024-03-02T07:24:31;9.50;99.90
28071;DHT22;15383;48.408;9.968;2024-03-02T07:26:56;9.50;99.90
28071;DHT22;15383;48.408;9.968;2024-03-02T07:29:22;9.50;99.90
28071;DHT22;15383;48.408;9.968;2024-03-02T07:31:47;9.50;99.90
28071;DHT22;15383;48.408;9.968;2024-03-02T07:34:13;9.50;99.90
28071;DHT22;15383;48.408;9.968;2024-03-02T07:36:39;9.50;99.90
28071;DHT22;15383;48.408;9.968;2024-03-02T07:39:04;9.50;99.90
28071;DHT22;15383;48.408;9.968;2024-03-02T07:41:30;9.50;99.90
28071;DHT22;15383;48.408;9.968;2024-03-02T07:43:56;9.50;99.90
28071;DHT22;15383;48.408;9.968;2024-03-02T07:46:22;9.50;99.90
28071;DHT22;15383;48.408;9.968;2024-03-02T07:48:47;9.50;99.90
28071;DHT22;15383;48.408;9.968;2024-03-02T07:51:13;9.50;99.90
28071;DHT22;15383;48.408;9.968;2024-03-02T07:53:39;9.50;99.90
28071;DHT22;15383;48.408;9.968;2024-03-02T07:56:05;9.50;99.90
28071;DHT22;15383;48.408;9.968;2024-03-02T07:58:31;9.50;99.90
28071;DHT22;15383;48.408;9.968;2024-03-02T08:00:59;9.50;99.90
28071;DHT22;15383;48.408;9.968;2024-03-02T08:03:26;9.50;99.90
28071;DHT22;15383;48.408;9.968;2024-03-02T08:05:52;9.50;99.90
28071;DHT22;15383;48.408;9.968;2024-03-02T08:08:18;9.50;99.90
28071;DHT22;15383;48.408;9.968;2024-03-02T08:10:44;9.50;99.90
28071;DHT22;15383;48.408;9.968;2024-03-02T08:13:09;9.50;99.90
28071;DHT22;15383;48.408;9.968;2024-03-02T08:15:35;9.50;99.90
28071;DHT22;15383;48.408;9.968;2024-03-02T08:18:00;9.50;99.90
28071;DHT22;15383;48.408;9.968;2024-03-02T08:20:26;9.50;99.90
28071;DHT22;15383;48.408;9.968;2024-03-02T08:22:52;9.50;99.90
28071;DHT22;15383;48.408;9.968;2024-03-02T08:25:20;9.50;99.90
28071;DHT22;15383;48.408;9.968;2024-03-02T08:27:46;9.50;99.90
28071;DHT22;15383;48.408;9.968;2024-03-02T08:30:12;9.50;99.90
28071;DHT22;15383;48.408;9.968;2024-03-02T08:32:37;9.50;99.90
28071;DHT22;15383;48.408;9.968;2024-03-02T08:35:04;9.50;99.90
28071;DHT22;15383;48.408;9.968;2024-03-02T08:37:30;9.50;99.90
28071;DHT22;15383;48.408;9.968;2024-03-02T08:39:56;9.50;99.90
28071;DHT22;15383;48.408;9.968;2024-03-02T08:42:22;9.50;99.90
28071;DHT22;15383;48.408;9.968;2024-03-02T08:44:48;9.50;99.90
28071;DHT22;15383;48.408;9.968;2024-03-02T08:47:13;9.50;99.90
28071;DHT22;15383;48.408;9.968;2024-03-02T08:49:39;9.50;99.90
28071;DHT22;15383;48.408;9.968;2024-03-02T08:52:05;9.50;99.90
28071;DHT22;15383;48.408;9.968;2024-03-02T08:54:30;9.50;99.90
28071;DHT22;15383;48.408;9.968;2024-03-02T08:56:56;9.50;99.90
28071;DHT22;15383;48.408;9.968;2024-03-02T08:59:22;9.60;99.90
28071;DHT22;15383;48.408;9.968;2024-03-02T09:01:47;9.60;99.90
28071;DHT22;15383;48.408;9.968;2024-03-02T09:04:13;9.60;99.90
28071;DHT22;15383;48.408;9.968;2024-03-02T09:06:39;9.60;99.90
28071;DHT22;15383;48.408;9.968;2024-03-02T09:09:04;9.60;99.90
28071;DHT22;15383;48.408;9.968;2024-03-02T09:11:30;9.60;99.90
28071;DHT22;15383;48.408;9.968;2024-03-02T09:13:55;9.60;99.90
28071;DHT22;15383;48.408;9.968;2024-03-02T09:16:23;9.60;99.90
28071;DHT22;15383;48.408;9.968;2024-03-02T09:18:49;9.60;99.90
28071;DHT22;15383;48.408;9.968;2024-03-02T09:21:15;9.60;99.90
28071;DHT22;15383;48.408;9.968;2024-03-02T09:23:40;9.60;99.90
28071;DHT22;15383;48.408;9.968;2024-03-02T09:26:06;9.70;99.90
28071;DHT22;15383;48.408;9.968;2024-03-02T09:28:31;9.70;99.90
28071;DHT22;15383;48.408;9.968;2024-03-02T09:30:57;9.70;99.90
28071;DHT22;15383;48.408;9.968;2024-03-02T09:33:22;9.80;99.90
28071;DHT22;15383;48.408;9.968;2024-03-02T09:35:48;9.80;99.90
28071;DHT22;15383;48.408;9.968;2024-03-02T09:38:14;9.80;99.90
28071;DHT22;15383;48.408;9.968;2024-03-02T09:40:41;9.80;99.90
28071;DHT22;15383;48.408;9.968;2024-03-02T09:43:07;9.80;99.90
28071;DHT22;15383;48.408;9.968;2024-03-02T09:45:33;9.90;99.90
28071;DHT22;15383;48.408;9.968;2024-03-02T09:47:59;9.80;99.90
28071;DHT22;15383;48.408;9.968;2024-03-02T09:50:25;9.90;99.90
28071;DHT22;15383;48.408;9.968;2024-03-02T09:52:50;9.80;99.90
28071;DHT22;15383;48.408;9.968;2024-03-02T09:55:18;9.90;99.90
28071;DHT22;15383;48.408;9.968;2024-03-02T09:57:45;9.90;99.90
28071;DHT22;15383;48.408;9.968;2024-03-02T10:00:11;9.90;99.90
28071;DHT22;15383;48.408;9.968;2024-03-02T10:02:40;9.90;99.90
28071;DHT22;15383;48.408;9.968;2024-03-02T10:05:07;10.00;99.90
28071;DHT22;15383;48.408;9.968;2024-03-02T10:07:33;10.10;99.90
28071;DHT22;15383;48.408;9.968;2024-03-02T10:10:14;10.20;99.90
28071;DHT22;15383;48.408;9.968;2024-03-02T10:12:40;10.20;99.90
28071;DHT22;15383;48.408;9.968;2024-03-02T10:15:06;10.20;99.90
28071;DHT22;15383;48.408;9.968;2024-03-02T10:17:32;10.30;99.90
28071;DHT22;15383;48.408;9.968;2024-03-02T10:19:58;10.30;99.90
28071;DHT22;15383;48.408;9.968;2024-03-02T10:22:24;10.50;99.90
28071;DHT22;15383;48.408;9.968;2024-03-02T10:24:49;10.50;99.90
28071;DHT22;15383;48.408;9.968;2024-03-02T10:27:17;10.50;99.90
28071;DHT22;15383;48.408;9.968;2024-03-02T10:29:46;10.50;99.90
28071;DHT22;15383;48.408;9.968;2024-03-02T10:32:11;10.70;99.90
28071;DHT22;15383;48.408;9.968;2024-03-02T10:34:41;11.10;99.90
28071;DHT22;15383;48.408;9.968;2024-03-02T10:37:07;11.30;99.90
28071;DHT22;15383;48.408;9.968;2024-03-02T10:39:34;11.30;99.90
28071;DHT22;15383;48.408;9.968;2024-03-02T10:42:02;11.40;99.90
28071;DHT22;15383;48.408;9.968;2024-03-02T10:44:29;11.40;99.90
28071;DHT22;15383;48.408;9.968;2024-03-02T10:46:55;11.40;99.90
28071;DHT22;15383;48.408;9.968;2024-03-02T10:49:22;11.40;99.90
28071;DHT22;15383;48.408;9.968;2024-03-02T10:51:48;11.50;99.90
28071;DHT22;15383;48.408;9.968;2024-03-02T10:54:14;11.70;99.90
28071;DHT22;15383;48.408;9.968;2024-03-02T10:56:41;11.90;99.90
28071;DHT22;15383;48.408;9.968;2024-03-02T11:01:55;12.60;99.90
28071;DHT22;15383;48.408;9.968;2024-03-02T11:04:21;12.90;99.90
28071;DHT22;15383;48.408;9.968;2024-03-02T11:06:51;13.10;99.90
28071;DHT22;15383;48.408;9.968;2024-03-02T11:09:26;13.30;99.90
28071;DHT22;15383;48.408;9.968;2024-03-02T11:12:25;13.30;99.90
28071;DHT22;15383;48.408;9.968;2024-03-02T11:14:55;13.30;99.90
28071;DHT22;15383;48.408;9.968;2024-03-02T11:17:21;13.30;99.90
28071;DHT22;15383;48.408;9.968;2024-03-02T11:19:49;13.40;99.90
28071;DHT22;15383;48.408;9.968;2024-03-02T11:22:15;13.40;99.90
28071;DHT22;15383;48.408;9.968;2024-03-02T11:24:52;13.50;99.90
28071;DHT22;15383;48.408;9.968;2024-03-02T11:33:04;13.80;99.90
28071;DHT22;15383;48.408;9.968;2024-03-02T11:35:35;14.00;99.90
28071;DHT22;15383;48.408;9.968;2024-03-02T11:38:02;14.00;99.90
28071;DHT22;15383;48.408;9.968;2024-03-02T11:40:29;14.00;99.90
28071;DHT22;15383;48.408;9.968;2024-03-02T11:42:56;14.10;99.90
28071;DHT22;15383;48.408;9.968;2024-03-02T11:45:28;14.00;99.90
28071;DHT22;15383;48.408;9.968;2024-03-02T11:47:55;14.00;99.90
28071;DHT22;15383;48.408;9.968;2024-03-02T11:50:30;14.00;99.90
28071;DHT22;15383;48.408;9.968;2024-03-02T11:52:56;13.90;99.90
28071;DHT22;15383;48.408;9.968;2024-03-02T11:55:26;13.90;99.90
28071;DHT22;15383;48.408;9.968;2024-03-02T11:57:53;13.80;99.90
28071;DHT22;15383;48.408;9.968;2024-03-02T12:00:21;13.80;99.90
28071;DHT22;15383;48.408;9.968;2024-03-02T12:03:03;13.70;99.90
28071;DHT22;15383;48.408;9.968;2024-03-02T12:05:30;13.60;99.90
28071;DHT22;15383;48.408;9.968;2024-03-02T12:08:02;13.60;99.90
28071;DHT22;15383;48.408;9.968;2024-03-02T12:10:28;13.50;99.90
28071;DHT22;15383;48.408;9.968;2024-03-02T12:15:28;13.30;99.90
28071;DHT22;15383;48.408;9.968;2024-03-02T12:17:55;13.10;99.90
28071;DHT22;15383;48.408;9.968;2024-03-02T12:20:22;12.90;99.90
28071;DHT22;15383;48.408;9.968;2024-03-02T12:22:52;12.80;99.90
28071;DHT22;15383;48.408;9.968;2024-03-02T12:25:22;12.80;99.90
28071;DHT22;15383;48.408;9.968;2024-03-02T12:27:50;12.70;99.90
28071;DHT22;15383;48.408;9.968;2024-03-02T12:30:19;12.50;99.90
28071;DHT22;15383;48.408;9.968;2024-03-02T12:32:46;12.40;99.90
28071;DHT22;15383;48.408;9.968;2024-03-02T12:35:12;12.40;99.90
28071;DHT22;15383;48.408;9.968;2024-03-02T12:37:58;12.30;99.90
28071;DHT22;15383;48.408;9.968;2024-03-02T12:40:24;12.10;99.90
28071;DHT22;15383;48.408;9.968;2024-03-02T12:42:50;12.00;99.90
28071;DHT22;15383;48.408;9.968;2024-03-02T12:45:16;11.90;99.90
28071;DHT22;15383;48.408;9.968;2024-03-02T12:47:49;11.80;99.90
28071;DHT22;15383;48.408;9.968;2024-03-02T12:50:16;11.70;99.90
28071;DHT22;15383;48.408;9.968;2024-03-02T12:52:41;11.50;99.90
28071;DHT22;15383;48.408;9.968;2024-03-02T12:55:07;11.50;99.90
28071;DHT22;15383;48.408;9.968;2024-03-02T12:57:34;11.40;99.90
28071;DHT22;15383;48.408;9.968;2024-03-02T13:00:00;11.30;99.90
28071;DHT22;15383;48.408;9.968;2024-03-02T13:02:30;11.30;99.90
28071;DHT22;15383;48.408;9.968;2024-03-02T13:04:57;11.20;99.90
28071;DHT22;15383;48.408;9.968;2024-03-02T13:07:24;11.20;99.90
28071;DHT22;15383;48.408;9.968;2024-03-02T13:09:51;11.10;99.90
28071;DHT22;15383;48.408;9.968;2024-03-02T13:12:17;11.10;99.90
28071;DHT22;15383;48.408;9.968;2024-03-02T13:14:44;11.10;99.90
28071;DHT22;15383;48.408;9.968;2024-03-02T13:17:09;11.00;99.90
28071;DHT22;15383;48.408;9.968;2024-03-02T13:19:35;11.00;99.90
28071;DHT22;15383;48.408;9.968;2024-03-02T13:22:01;11.00;99.90
28071;DHT22;15383;48.408;9.968;2024-03-02T13:24:29;11.00;99.90
28071;DHT22;15383;48.408;9.968;2024-03-02T13:26:55;10.90;99.90
28071;DHT22;15383;48.408;9.968;2024-03-02T13:29:23;10.90;99.90
28071;DHT22;15383;48.408;9.968;2024-03-02T13:31:49;10.90;99.90
28071;DHT22;15383;48.408;9.968;2024-03-02T13:34:14;10.90;99.90
28071;DHT22;15383;48.408;9.968;2024-03-02T13:36:40;10.90;99.90
28071;DHT22;15383;48.408;9.968;2024-03-02T13:39:06;10.80;99.90
28071;DHT22;15383;48.408;9.968;2024-03-02T13:41:34;10.80;99.90
28071;DHT22;15383;48.408;9.968;2024-03-02T13:44:00;10.80;99.90
28071;DHT22;15383;48.408;9.968;2024-03-02T13:46:27;10.80;99.90
28071;DHT22;15383;48.408;9.968;2024-03-02T13:48:53;10.80;99.90
28071;DHT22;15383;48.408;9.968;2024-03-02T13:51:19;10.80;99.90
28071;DHT22;15383;48.408;9.968;2024-03-02T13:53:45;10.80;99.90
28071;DHT22;15383;48.408;9.968;2024-03-02T13:56:10;10.80;99.90
28071;DHT22;15383;48.408;9.968;2024-03-02T13:58:37;10.70;99.90
28071;DHT22;15383;48.408;9.968;2024-03-02T14:01:03;10.70;99.90
28071;DHT22;15383;48.408;9.968;2024-03-02T14:03:30;10.70;99.90
28071;DHT22;15383;48.408;9.968;2024-03-02T14:05:56;10.70;99.90
28071;DHT22;15383;48.408;9.968;2024-03-02T14:08:22;10.70;99.90
28071;DHT22;15383;48.408;9.968;2024-03-02T14:10:47;10.70;99.90
28071;DHT22;15383;48.408;9.968;2024-03-02T14:13:13;10.70;99.90
28071;DHT22;15383;48.408;9.968;2024-03-02T14:15:38;10.70;99.90
28071;DHT22;15383;48.408;9.968;2024-03-02T14:18:05;10.60;99.90
28071;DHT22;15383;48.408;9.968;2024-03-02T14:20:31;10.60;99.90
28071;DHT22;15383;48.408;9.968;2024-03-02T14:22:58;10.60;99.90
28071;DHT22;15383;48.408;9.968;2024-03-02T14:25:25;10.60;99.90
28071;DHT22;15383;48.408;9.968;2024-03-02T14:27:50;10.70;99.90
28071;DHT22;15383;48.408;9.968;2024-03-02T14:30:16;10.70;99.90
28071;DHT22;15383;48.408;9.968;2024-03-02T14:32:42;10.70;99.90
28071;DHT22;15383;48.408;9.968;2024-03-02T14:35:08;10.70;99.90
28071;DHT22;15383;48.408;9.968;2024-03-02T14:37:36;10.70;99.90
28071;DHT22;15383;48.408;9.968;2024-03-02T14:40:02;10.70;99.90
28071;DHT22;15383;48.408;9.968;2024-03-02T14:42:29;10.70;99.90
28071;DHT22;15383;48.408;9.968;2024-03-02T14:44:56;10.70;99.90
28071;DHT22;15383;48.408;9.968;2024-03-02T14:47:22;10.70;99.90
28071;DHT22;15383;48.408;9.968;2024-03-02T14:49:48;10.70;99.90
28071;DHT22;15383;48.408;9.968;2024-03-02T14:52:13;10.70;99.90
28071;DHT22;15383;48.408;9.968;2024-03-02T14:54:39;10.60;99.90
28071;DHT22;15383;48.408;9.968;2024-03-02T14:57:05;10.60;99.90
28071;DHT22;15383;48.408;9.968;2024-03-02T14:59:30;10.60;99.90
28071;DHT22;15383;48.408;9.968;2024-03-02T15:01:56;10.60;99.90
28071;DHT22;15383;48.408;9.968;2024-03-02T15:04:22;10.60;99.90
28071;DHT22;15383;48.408;9.968;2024-03-02T15:06:48;10.60;99.90
28071;DHT22;15383;48.408;9.968;2024-03-02T15:09:14;10.70;99.90
28071;DHT22;15383;48.408;9.968;2024-03-02T15:11:39;10.60;99.90
28071;DHT22;15383;48.408;9.968;2024-03-02T15:14:05;10.60;99.90
28071;DHT22;15383;48.408;9.968;2024-03-02T15:16:31;10.60;99.90
28071;DHT22;15383;48.408;9.968;2024-03-02T15:18:56;10.60;99.90
28071;DHT22;15383;48.408;9.968;2024-03-02T15:21:22;10.60;99.90
28071;DHT22;15383;48.408;9.968;2024-03-02T15:23:48;10.60;99.90
28071;DHT22;15383;48.408;9.968;2024-03-02T15:26:13;10.60;99.90
28071;DHT22;15383;48.408;9.968;2024-03-02T15:28:39;10.60;99.90
28071;DHT22;15383;48.408;9.968;2024-03-02T15:31:04;10.60;99.90
28071;DHT22;15383;48.408;9.968;2024-03-02T15:33:30;10.60;99.90
28071;DHT22;15383;48.408;9.968;2024-03-02T15:35:58;10.60;99.90
28071;DHT22;15383;48.408;9.968;2024-03-02T15:38:25;10.60;99.90
28071;DHT22;15383;48.408;9.968;2024-03-02T15:40:50;10.60;99.90
28071;DHT22;15383;48.408;9.968;2024-03-02T15:43:16;10.60;99.90
28071;DHT22;15383;48.408;9.968;2024-03-02T15:45:41;10.60;99.90
28071;DHT22;15383;48.408;9.968;2024-03-02T15:48:07;10.50;99.90
28071;DHT22;15383;48.408;9.968;2024-03-02T15:50:33;10.50;99.90
28071;DHT22;15383;48.408;9.968;2024-03-02T15:52:58;10.50;99.90